Terminal Aerodrome Forecast
Issued by NWS

Home | Current Version | Previous Version | Text Only | Print | Product List | Glossary On
Versions: 1 2 3 4 5 6 7 8 9 10 11 12 13 14
000
FTUS41 KBTV 211100
TAFMPV
TAF
KMPV 211120Z 2112/2212 18006KT P6SM BKN100
     FM211400 22008G15KT P6SM BKN100
     FM220000 VRB02KT P6SM OVC080=

USA.gov is the U.S. government's official web portal to all federal, state and local government web resources and services.